createdAt,value
2018-06-02T00:02:25.744Z,13.68
2018-06-02T00:04:53.456Z,16.00
2018-06-02T00:07:22.620Z,13.98
2018-06-02T00:09:50.694Z,15.05
2018-06-02T00:12:19.594Z,15.07
2018-06-02T00:14:47.750Z,14.75
2018-06-02T00:17:15.390Z,15.48
2018-06-02T00:19:43.382Z,15.70
2018-06-02T00:22:12.669Z,16.30
2018-06-02T00:24:40.745Z,15.55
2018-06-02T00:27:08.522Z,15.18
2018-06-02T00:29:36.162Z,15.73
2018-06-02T00:32:04.643Z,16.10
2018-06-02T00:34:32.423Z,15.52
2018-06-02T00:37:01.006Z,16.08
2018-06-02T00:39:28.879Z,16.52
2018-06-02T00:41:56.636Z,14.60
2018-06-02T00:44:24.818Z,15.40
2018-06-02T00:46:52.985Z,14.93
2018-06-02T00:49:20.754Z,15.52
2018-06-02T00:51:48.504Z,15.93
2018-06-02T00:54:16.378Z,15.77
2018-06-02T00:56:44.950Z,16.85
2018-06-02T00:59:12.734Z,15.27
2018-06-02T01:01:40.783Z,14.87
2018-06-02T01:04:08.960Z,15.75
2018-06-02T01:06:36.829Z,15.68
2018-06-02T01:09:04.589Z,16.33
2018-06-02T01:11:33.183Z,17.60
2018-06-02T01:14:00.950Z,16.62
2018-06-02T01:16:29.536Z,17.25
2018-06-02T01:18:58.806Z,16.37
2018-06-02T01:21:27.026Z,16.75
2018-06-02T01:23:55.575Z,16.15
2018-06-02T01:26:23.343Z,15.57
2018-06-02T01:28:51.206Z,16.75
2018-06-02T01:31:18.978Z,16.10
2018-06-02T01:33:46.723Z,15.45
2018-06-02T01:36:15.010Z,15.05
2018-06-02T01:38:42.870Z,15.75
2018-06-02T01:41:10.740Z,16.15
2018-06-02T01:43:38.811Z,17.98
2018-06-02T01:46:07.086Z,16.90
2018-06-02T01:48:34.859Z,16.95
2018-06-02T01:51:02.508Z,17.27
2018-06-02T01:53:31.090Z,17.08
2018-06-02T01:55:58.858Z,16.85
2018-06-02T01:58:26.632Z,16.50
2018-06-02T02:00:54.792Z,17.50
2018-06-02T02:03:22.971Z,18.65
2018-06-02T02:05:50.741Z,18.05
2018-06-02T02:08:18.911Z,17.75
2018-06-02T02:10:46.667Z,17.15
2018-06-02T02:13:14.721Z,17.05
2018-06-02T02:15:43.515Z,16.35
2018-06-02T02:18:11.287Z,16.70
2018-06-02T02:20:38.950Z,16.65
2018-06-02T02:23:06.612Z,17.52
2018-06-02T02:25:35.125Z,16.12
2018-06-02T02:28:03.679Z,15.27
2018-06-02T02:30:31.443Z,16.33
2018-06-02T02:32:59.297Z,16.48
2018-06-02T02:35:27.064Z,16.45
2018-06-02T02:37:55.031Z,16.60
2018-06-02T02:40:22.798Z,16.87
2018-06-02T02:42:50.558Z,16.75
2018-06-02T02:45:18.754Z,16.05
2018-06-02T02:47:46.923Z,16.73
2018-06-02T02:50:15.902Z,16.23
2018-06-02T02:52:43.863Z,16.83
2018-06-02T02:55:11.731Z,16.40
2018-06-02T02:57:39.507Z,16.50
2018-06-02T03:00:07.255Z,16.83
2018-06-02T03:02:35.025Z,17.10
2018-06-02T03:05:02.786Z,16.73
2018-06-02T03:07:30.974Z,17.08
2018-06-02T03:09:59.967Z,16.00
2018-06-02T03:12:28.840Z,16.42
2018-06-02T03:14:57.013Z,16.60
2018-06-02T03:17:24.772Z,16.33
2018-06-02T03:19:52.862Z,15.05
2018-06-02T03:22:20.908Z,16.62
2018-06-02T03:24:48.690Z,16.37
2018-06-02T03:27:16.855Z,15.25
2018-06-02T03:29:44.504Z,15.35
2018-06-02T03:32:13.140Z,15.07
2018-06-02T03:34:41.577Z,14.98
2018-06-02T03:37:09.446Z,14.77
2018-06-02T03:39:37.316Z,13.93
2018-06-02T03:42:05.077Z,17.10
2018-06-02T03:44:32.850Z,16.05
2018-06-02T03:47:01.213Z,16.58
2018-06-02T03:49:29.695Z,16.45
2018-06-02T03:51:57.463Z,16.02
2018-06-02T03:54:25.332Z,16.50
2018-06-02T03:56:53.102Z,16.50
2018-06-02T03:59:22.205Z,17.25
2018-06-02T04:01:51.495Z,16.45
2018-06-02T04:04:20.665Z,16.92
2018-06-02T04:06:48.863Z,16.98
2018-06-02T04:09:16.613Z,17.62
2018-06-02T04:11:44.682Z,17.65
2018-06-02T04:14:12.960Z,17.12
2018-06-02T04:16:40.764Z,17.77
2018-06-02T04:19:09.099Z,16.58
2018-06-02T04:21:37.139Z,16.25
2018-06-02T04:24:05.040Z,16.45
2018-06-02T04:26:32.810Z,17.60
2018-06-02T04:29:00.870Z,17.73
2018-06-02T04:31:29.869Z,17.98
2018-06-02T04:33:57.527Z,17.27
2018-06-02T04:36:26.653Z,17.87
2018-06-02T04:38:55.719Z,17.62
2018-06-02T04:41:23.672Z,17.40
2018-06-02T04:43:51.345Z,16.90
2018-06-02T04:46:19.212Z,16.37
2018-06-02T04:48:46.863Z,15.15
2018-06-02T04:51:14.942Z,11.75
2018-06-02T04:53:42.713Z,10.15
2018-06-02T04:56:10.766Z,9.45
2018-06-02T04:58:39.354Z,8.18
2018-06-02T05:01:07.229Z,7.40
2018-06-02T05:03:34.883Z,8.48
2018-06-02T05:06:02.546Z,7.80
2018-06-02T05:08:31.083Z,7.97
2018-06-02T05:10:59.510Z,7.87
2018-06-02T05:13:27.376Z,7.60
2018-06-02T05:15:55.154Z,8.40
2018-06-02T05:18:23.721Z,8.00
2018-06-02T05:20:51.496Z,8.00
2018-06-02T05:23:19.350Z,7.72
2018-06-02T05:25:48.141Z,8.55
2018-06-02T05:28:16.010Z,8.68
2018-06-02T05:30:43.873Z,9.20
2018-06-02T05:33:11.736Z,8.43
2018-06-02T05:35:39.383Z,8.07
2018-06-02T05:38:07.148Z,8.25
2018-06-02T05:40:34.977Z,7.97
2018-06-02T05:43:03.510Z,7.37
2018-06-02T05:45:31.373Z,6.95
2018-06-02T05:47:59.135Z,7.37
2018-06-02T05:50:26.902Z,8.35
2018-06-02T05:52:54.667Z,7.78
2018-06-02T05:55:22.844Z,6.82
2018-06-02T05:57:50.871Z,7.80
2018-06-02T06:00:19.182Z,7.95
2018-06-02T06:02:46.844Z,7.72
2018-06-02T06:05:15.023Z,8.00
2018-06-02T06:07:42.793Z,7.78
2018-06-02T06:10:10.977Z,8.02
2018-06-02T06:12:38.836Z,10.80
2018-06-02T06:15:07.206Z,7.47
2018-06-02T06:17:34.859Z,7.10
2018-06-02T06:20:03.035Z,7.00
2018-06-02T06:22:30.813Z,6.07
2018-06-02T06:24:58.550Z,6.80
2018-06-02T06:27:27.144Z,5.60
2018-06-02T06:29:54.918Z,5.15
2018-06-02T06:32:23.390Z,5.65
2018-06-02T06:34:51.264Z,5.45
2018-06-02T06:37:19.023Z,5.45
2018-06-02T06:39:47.486Z,5.82
2018-06-02T06:42:15.146Z,5.25
2018-06-02T06:44:43.240Z,5.30
2018-06-02T06:47:10.884Z,5.70
2018-06-02T06:49:39.054Z,5.28
2018-06-02T06:52:06.772Z,5.95
2018-06-02T06:54:34.910Z,5.10
2018-06-02T06:57:02.961Z,5.78
2018-06-02T06:59:30.718Z,5.37
2018-06-02T07:01:59.508Z,5.15
2018-06-02T07:04:27.181Z,5.25
2018-06-02T07:06:55.346Z,5.57
2018-06-02T07:09:23.008Z,5.10
2018-06-02T07:11:50.804Z,4.70
2018-06-02T07:14:19.045Z,4.62
2018-06-02T07:16:46.711Z,6.62
2018-06-02T07:19:15.700Z,4.12
2018-06-02T07:21:43.488Z,5.03
2018-06-02T07:24:11.346Z,4.90
2018-06-02T07:26:40.460Z,4.45
2018-06-02T07:29:09.114Z,4.43
2018-06-02T07:31:36.990Z,4.75
2018-06-02T07:34:04.851Z,4.85
2018-06-02T07:36:33.022Z,5.50
2018-06-02T07:39:01.077Z,5.40
2018-06-02T07:41:28.839Z,5.20
2018-06-02T07:43:57.130Z,4.75
2018-06-02T07:46:25.012Z,5.25
2018-06-02T07:48:52.882Z,5.25
2018-06-02T07:51:21.041Z,5.65
2018-06-02T07:53:48.792Z,5.25
2018-06-02T07:56:16.977Z,6.50
2018-06-02T07:58:44.745Z,5.57
2018-06-02T08:01:13.008Z,5.28
2018-06-02T08:03:40.663Z,5.12
2018-06-02T08:06:08.846Z,6.10
2018-06-02T08:08:36.923Z,5.75
2018-06-02T08:11:05.293Z,5.78
2018-06-02T08:13:33.160Z,5.30
2018-06-02T08:16:00.848Z,5.43
2018-06-02T08:18:29.025Z,4.80
2018-06-02T08:20:56.860Z,5.00
2018-06-02T08:23:24.629Z,4.80
2018-06-02T08:25:53.003Z,4.57
2018-06-02T08:28:21.192Z,4.78
2018-06-02T08:30:49.658Z,4.53
2018-06-02T08:33:17.478Z,4.37
2018-06-02T08:35:45.287Z,4.35
2018-06-02T08:38:12.938Z,4.53
2018-06-02T08:40:40.749Z,4.25
2018-06-02T08:43:08.912Z,4.20
2018-06-02T08:45:37.252Z,3.50
2018-06-02T08:48:05.124Z,3.65
2018-06-02T08:50:32.987Z,4.00
2018-06-02T08:53:00.640Z,3.70
2018-06-02T08:55:28.707Z,3.78
2018-06-02T08:57:56.907Z,4.45
2018-06-02T09:00:25.159Z,4.45
2018-06-02T09:02:52.945Z,3.60
2018-06-02T09:05:20.817Z,3.87
2018-06-02T09:07:48.975Z,4.35
2018-06-02T09:10:16.770Z,4.05
2018-06-02T09:12:45.111Z,4.53
2018-06-02T09:15:12.872Z,3.97
2018-06-02T09:17:41.151Z,4.70
2018-06-02T09:20:08.954Z,4.47
2018-06-02T09:22:37.208Z,4.65
2018-06-02T09:25:05.048Z,5.50
2018-06-02T09:27:32.932Z,4.80
2018-06-02T09:30:01.302Z,4.40
2018-06-02T09:32:29.173Z,4.53
2018-06-02T09:34:56.930Z,4.43
2018-06-02T09:37:25.146Z,4.35
2018-06-02T09:39:54.327Z,4.55
2018-06-02T09:42:22.889Z,4.35
2018-06-02T09:44:50.963Z,4.20
2018-06-02T09:47:19.522Z,5.40
2018-06-02T09:49:47.312Z,20.48
2018-06-02T09:52:15.804Z,4.50
2018-06-02T09:54:43.546Z,4.78
2018-06-02T09:57:11.731Z,4.68
2018-06-02T09:59:39.366Z,4.00
2018-06-02T10:02:07.043Z,4.80
2018-06-02T10:04:35.235Z,4.70
2018-06-02T10:07:03.096Z,5.12
2018-06-02T10:09:30.948Z,4.68
2018-06-02T10:11:59.124Z,4.25
2018-06-02T10:14:27.278Z,4.05
2018-06-02T10:16:54.965Z,4.20
2018-06-02T10:19:23.232Z,4.20
2018-06-02T10:21:51.007Z,4.62
2018-06-02T10:24:19.175Z,3.95
2018-06-02T10:26:48.268Z,4.25
2018-06-02T10:29:16.834Z,4.12
2018-06-02T10:31:45.014Z,3.80
2018-06-02T10:34:13.203Z,4.18
2018-06-02T10:36:41.091Z,5.37
2018-06-02T10:39:09.327Z,8.00
2018-06-02T10:41:37.108Z,4.70
2018-06-02T10:44:05.091Z,5.57
2018-06-02T10:46:33.663Z,13.62
2018-06-02T10:49:01.408Z,10.90
2018-06-02T10:51:29.065Z,4.05
2018-06-02T10:53:56.830Z,3.97
2018-06-02T10:56:25.108Z,3.95
2018-06-02T10:58:52.890Z,3.80
2018-06-02T11:01:21.066Z,4.12
2018-06-02T11:03:49.319Z,4.60
2018-06-02T11:06:17.113Z,4.30
2018-06-02T11:08:45.562Z,3.60
2018-06-02T11:11:13.345Z,4.35
2018-06-02T11:13:40.983Z,4.57
2018-06-02T11:16:09.160Z,3.72
2018-06-02T11:18:37.031Z,7.68
2018-06-02T11:21:05.206Z,6.22
2018-06-02T11:23:33.483Z,3.87
2018-06-02T11:26:01.343Z,4.10
2018-06-02T11:28:29.093Z,3.45
2018-06-02T11:30:56.974Z,3.95
2018-06-02T11:33:25.154Z,3.78
2018-06-02T11:35:52.845Z,3.72
2018-06-02T11:38:20.984Z,4.12
2018-06-02T11:40:49.143Z,3.40
2018-06-02T11:43:16.810Z,3.47
2018-06-02T11:45:45.621Z,3.62
2018-06-02T11:48:13.481Z,4.10
2018-06-02T11:50:41.357Z,3.65
2018-06-02T11:53:09.198Z,3.50
2018-06-02T11:55:36.981Z,4.07
2018-06-02T11:58:05.234Z,3.62
2018-06-02T12:00:33.010Z,3.90
2018-06-02T12:03:01.267Z,3.62
2018-06-02T12:05:29.143Z,3.03
2018-06-02T12:07:56.797Z,3.35
2018-06-02T12:10:24.986Z,3.10
2018-06-02T12:12:53.027Z,3.22
2018-06-02T12:15:21.322Z,3.40
2018-06-02T12:17:49.008Z,3.05
2018-06-02T12:20:17.354Z,3.37
2018-06-02T12:22:45.110Z,3.25
2018-06-02T12:25:12.887Z,3.00
2018-06-02T12:27:40.943Z,3.30
2018-06-02T12:30:09.425Z,2.53
2018-06-02T12:32:37.306Z,3.12
2018-06-02T12:35:05.065Z,2.83
2018-06-02T12:37:34.677Z,2.97
2018-06-02T12:40:03.260Z,2.50
2018-06-02T12:42:31.016Z,2.90
2018-06-02T12:45:00.013Z,2.60
2018-06-02T12:47:27.774Z,2.90
2018-06-02T12:49:55.457Z,2.75
2018-06-02T12:52:23.189Z,2.80
2018-06-02T12:54:50.960Z,2.47
2018-06-02T12:57:19.022Z,2.70
2018-06-02T12:59:47.205Z,2.45
2018-06-02T13:02:14.900Z,2.65
2018-06-02T13:04:43.031Z,2.40
2018-06-02T13:07:11.217Z,2.92
2018-06-02T13:09:39.495Z,2.55
2018-06-02T13:12:07.156Z,2.80
2018-06-02T13:14:35.257Z,2.45
2018-06-02T13:17:03.095Z,2.12
2018-06-02T13:19:31.358Z,2.87
2018-06-02T13:21:59.024Z,2.80
2018-06-02T13:24:27.201Z,2.97
2018-06-02T13:26:54.979Z,6.62
2018-06-02T13:29:23.027Z,2.90
2018-06-02T13:31:51.201Z,5.80
2018-06-02T13:34:18.871Z,2.95
2018-06-02T13:36:47.042Z,2.28
2018-06-02T13:39:15.226Z,2.00
2018-06-02T13:41:43.081Z,2.92
2018-06-02T13:44:11.255Z,2.00
2018-06-02T13:46:39.030Z,2.70
2018-06-02T13:49:07.329Z,2.35
2018-06-02T13:51:35.975Z,2.53
2018-06-02T13:54:03.843Z,2.75
2018-06-02T13:56:31.618Z,2.03
2018-06-02T13:58:59.260Z,1.80
2018-06-02T14:01:27.027Z,2.42
2018-06-02T14:03:55.204Z,2.83
2018-06-02T14:06:22.851Z,6.97
2018-06-02T14:08:51.028Z,4.78
2018-06-02T14:11:19.825Z,4.07
2018-06-02T14:13:47.627Z,3.80
2018-06-02T14:16:15.758Z,4.35
2018-06-02T14:18:43.611Z,4.53
2018-06-02T14:21:11.289Z,3.90
2018-06-02T14:23:39.056Z,4.18
2018-06-02T14:26:07.236Z,3.80
2018-06-02T14:28:35.195Z,4.40
2018-06-02T14:31:03.055Z,3.92
2018-06-02T14:33:31.249Z,3.45
2018-06-02T14:35:59.822Z,3.17
2018-06-02T14:38:27.596Z,3.90
2018-06-02T14:40:55.359Z,3.55
2018-06-02T14:43:23.116Z,3.30
2018-06-02T14:45:51.297Z,3.20
2018-06-02T14:48:19.259Z,2.90
2018-06-02T14:50:47.214Z,3.08
2018-06-02T14:53:15.183Z,3.15
2018-06-02T14:55:43.099Z,3.20
2018-06-02T14:58:10.924Z,3.47
2018-06-02T15:00:39.187Z,3.85
2018-06-02T15:03:07.061Z,3.10
2018-06-02T15:05:35.661Z,3.10
2018-06-02T15:08:03.423Z,3.47
2018-06-02T15:10:31.375Z,3.45
2018-06-02T15:12:59.238Z,3.53
2018-06-02T15:15:27.101Z,3.55
2018-06-02T15:17:55.295Z,3.50
2018-06-02T15:20:23.033Z,3.92
2018-06-02T15:22:51.250Z,3.95
2018-06-02T15:25:20.511Z,4.00
2018-06-02T15:27:49.129Z,3.90
2018-06-02T15:30:17.378Z,3.90
2018-06-02T15:32:45.230Z,3.50
2018-06-02T15:35:14.229Z,3.97
2018-06-02T15:37:42.096Z,3.75
2018-06-02T15:40:09.960Z,3.83
2018-06-02T15:42:37.714Z,3.35
2018-06-02T15:45:05.494Z,3.58
2018-06-02T15:47:35.083Z,3.03
2018-06-02T15:50:03.680Z,3.33
2018-06-02T15:52:31.554Z,3.25
2018-06-02T15:54:59.422Z,3.50
2018-06-02T15:57:27.694Z,3.65
2018-06-02T15:59:55.666Z,3.00
2018-06-02T16:02:23.416Z,3.60
2018-06-02T16:04:51.479Z,3.22
2018-06-02T16:07:19.257Z,3.30
2018-06-02T16:09:48.371Z,3.30
2018-06-02T16:12:17.546Z,3.30
2018-06-02T16:14:45.303Z,3.20
2018-06-02T16:17:13.079Z,3.70
2018-06-02T16:19:41.257Z,3.47
2018-06-02T16:22:09.008Z,3.42
2018-06-02T16:24:37.192Z,3.28
2018-06-02T16:27:04.979Z,3.40
2018-06-02T16:29:33.225Z,3.37
2018-06-02T16:32:00.990Z,3.60
2018-06-02T16:34:29.154Z,3.50
2018-06-02T16:36:57.021Z,3.40
2018-06-02T16:39:25.211Z,3.87
2018-06-02T16:41:53.068Z,3.45
2018-06-02T16:44:21.264Z,4.00
2018-06-02T16:46:49.825Z,3.45
2018-06-02T16:49:17.587Z,3.37
2018-06-02T16:51:47.918Z,3.75
2018-06-02T16:54:15.669Z,3.33
2018-06-02T16:56:43.318Z,3.85
2018-06-02T16:59:11.109Z,4.03
2018-06-02T17:01:39.474Z,3.70
2018-06-02T17:04:07.333Z,3.85
2018-06-02T17:06:35.094Z,3.65
2018-06-02T17:09:03.972Z,3.87
2018-06-02T17:11:31.622Z,4.00
2018-06-02T17:13:59.421Z,4.50
2018-06-02T17:16:27.059Z,4.12
2018-06-02T17:18:55.255Z,4.03
2018-06-02T17:21:24.546Z,4.75
2018-06-02T17:23:53.131Z,4.43
2018-06-02T17:26:21.299Z,4.60
2018-06-02T17:28:49.075Z,4.90
2018-06-02T17:31:17.194Z,5.40
2018-06-02T17:33:45.426Z,4.87
2018-06-02T17:36:13.180Z,4.43
2018-06-02T17:38:40.947Z,5.18
2018-06-02T17:41:09.112Z,5.50
2018-06-02T17:43:37.709Z,4.97
2018-06-02T17:46:05.474Z,5.07
2018-06-02T17:48:33.320Z,5.50
2018-06-02T17:51:01.188Z,5.22
2018-06-02T17:53:28.973Z,5.32
2018-06-02T17:55:57.130Z,5.78
2018-06-02T17:58:25.722Z,5.40
2018-06-02T18:00:53.680Z,5.70
2018-06-02T18:03:21.639Z,5.35
2018-06-02T18:05:49.425Z,5.70
2018-06-02T18:08:17.286Z,5.60
2018-06-02T18:10:45.152Z,5.85
2018-06-02T18:13:13.726Z,5.82
2018-06-02T18:15:41.591Z,5.75
2018-06-02T18:18:09.351Z,5.15
2018-06-02T18:20:37.227Z,6.25
2018-06-02T18:23:04.971Z,5.57
2018-06-02T18:25:33.056Z,6.15
2018-06-02T18:28:01.323Z,6.68
2018-06-02T18:30:28.977Z,6.47
2018-06-02T18:32:58.095Z,6.75
2018-06-02T18:35:26.143Z,6.70
2018-06-02T18:37:53.930Z,8.05
2018-06-02T18:40:21.686Z,9.27
2018-06-02T18:42:49.391Z,10.18
2018-06-02T18:45:17.925Z,9.93
2018-06-02T18:47:45.891Z,9.15
2018-06-02T18:50:13.682Z,6.60
2018-06-02T18:52:42.958Z,6.55
2018-06-02T18:55:11.134Z,6.22
2018-06-02T18:57:39.410Z,5.97
2018-06-02T19:00:07.591Z,5.70
2018-06-02T19:02:35.460Z,6.12
2018-06-02T19:05:03.424Z,5.75
2018-06-02T19:07:31.187Z,5.62
2018-06-02T19:09:59.197Z,5.90
2018-06-02T19:12:27.518Z,6.28
2018-06-02T19:14:55.390Z,5.97
2018-06-02T19:17:23.254Z,5.85
2018-06-02T19:19:51.022Z,6.12
2018-06-02T19:22:19.231Z,6.05
2018-06-02T19:24:47.830Z,6.15
2018-06-02T19:27:15.646Z,5.32
2018-06-02T19:29:43.415Z,6.68
2018-06-02T19:32:11.282Z,6.53
2018-06-02T19:34:39.236Z,6.62
2018-06-02T19:37:06.904Z,7.37
2018-06-02T19:39:35.073Z,6.78
2018-06-02T19:42:03.267Z,7.28
2018-06-02T19:44:31.126Z,7.95
2018-06-02T19:46:59.582Z,7.20
2018-06-02T19:49:27.459Z,7.57
2018-06-02T19:51:55.224Z,7.82
2018-06-02T19:54:23.075Z,6.97
2018-06-02T19:56:52.109Z,7.07
2018-06-02T19:59:21.174Z,7.07
2018-06-02T20:01:49.244Z,6.35
2018-06-02T20:04:16.948Z,6.82
2018-06-02T20:06:45.282Z,6.28
2018-06-02T20:09:13.052Z,7.05
2018-06-02T20:11:41.322Z,7.55
2018-06-02T20:14:09.316Z,7.82
2018-06-02T20:16:37.156Z,7.65
2018-06-02T20:19:05.338Z,8.32
2018-06-02T20:21:33.824Z,7.90
2018-06-02T20:24:01.671Z,7.68
2018-06-02T20:26:29.452Z,8.75
2018-06-02T20:28:57.094Z,8.40
2018-06-02T20:31:25.307Z,8.77
2018-06-02T20:33:53.875Z,8.85
2018-06-02T20:36:21.717Z,9.00
2018-06-02T20:38:49.379Z,8.70
2018-06-02T20:41:17.246Z,10.00
2018-06-02T20:43:45.115Z,9.05
2018-06-02T20:46:13.283Z,8.88
2018-06-02T20:48:41.148Z,9.05
2018-06-02T20:51:09.325Z,8.27
2018-06-02T20:53:37.086Z,8.73
2018-06-02T20:56:05.278Z,8.95
2018-06-02T20:58:33.738Z,8.90
2018-06-02T21:01:01.519Z,8.98
2018-06-02T21:03:30.723Z,8.70
2018-06-02T21:05:59.403Z,8.80
2018-06-02T21:08:29.278Z,9.40
2018-06-02T21:10:57.088Z,9.25
2018-06-02T21:13:25.140Z,8.90
2018-06-02T21:15:53.318Z,8.45
2018-06-02T21:18:21.495Z,9.23
2018-06-02T21:20:49.264Z,9.20
2018-06-02T21:23:17.105Z,9.02
2018-06-02T21:25:45.289Z,9.93
2018-06-02T21:28:13.157Z,9.50
2018-06-02T21:30:41.323Z,9.40
2018-06-02T21:33:09.087Z,9.93
2018-06-02T21:35:38.102Z,9.35
2018-06-02T21:38:05.851Z,9.75
2018-06-02T21:40:35.252Z,9.25
2018-06-02T21:43:03.030Z,9.57
2018-06-02T21:45:31.296Z,9.45
2018-06-02T21:47:59.869Z,9.50
2018-06-02T21:50:27.655Z,9.95
2018-06-02T21:52:57.031Z,10.65
2018-06-02T21:55:25.247Z,10.93
2018-06-02T21:57:53.382Z,10.80
2018-06-02T22:00:21.249Z,10.80
2018-06-02T22:02:49.109Z,11.57
2018-06-02T22:05:18.221Z,12.23
2018-06-02T22:07:47.209Z,12.15
2018-06-02T22:10:15.676Z,12.13
2018-06-02T22:12:43.459Z,12.00
2018-06-02T22:15:12.337Z,11.30
2018-06-02T22:17:41.254Z,11.30
2018-06-02T22:20:09.607Z,11.30
2018-06-02T22:22:38.715Z,11.30
2018-06-02T22:25:07.313Z,10.77
2018-06-02T22:27:35.868Z,11.85
2018-06-02T22:30:05.069Z,11.73
2018-06-02T22:32:33.237Z,11.93
2018-06-02T22:35:01.475Z,13.27
2018-06-02T22:37:29.170Z,12.98
2018-06-02T22:39:58.238Z,14.00
2018-06-02T22:42:27.039Z,15.05
2018-06-02T22:44:55.222Z,14.75
2018-06-02T22:47:23.298Z,15.95
2018-06-02T22:49:51.057Z,15.93
2018-06-02T22:52:19.223Z,15.45
2018-06-02T22:54:47.399Z,14.87
2018-06-02T22:57:15.261Z,16.55
2018-06-02T22:59:43.129Z,15.15
2018-06-02T23:02:11.409Z,15.45
2018-06-02T23:04:39.085Z,14.40
2018-06-02T23:07:07.258Z,14.38
2018-06-02T23:09:36.027Z,14.13
2018-06-02T23:12:03.899Z,14.52
2018-06-02T23:14:31.670Z,14.80
2018-06-02T23:17:00.773Z,14.13
2018-06-02T23:19:30.078Z,14.15
2018-06-02T23:21:57.915Z,15.30
2018-06-02T23:24:25.700Z,14.75
2018-06-02T23:26:54.803Z,14.77
2018-06-02T23:29:23.262Z,15.57
2018-06-02T23:31:51.038Z,14.75
2018-06-02T23:34:19.083Z,15.50
2018-06-02T23:36:47.363Z,15.38
2018-06-02T23:39:15.235Z,15.43
2018-06-02T23:41:43.425Z,15.90
2018-06-02T23:44:12.520Z,16.17
2018-06-02T23:46:41.118Z,17.02
2018-06-02T23:49:09.155Z,17.42
2018-06-02T23:51:37.342Z,18.40
2018-06-02T23:54:05.907Z,17.55
2018-06-02T23:56:33.583Z,16.70
2018-06-02T23:59:01.452Z,17.35
